Time;durP1;ratioP1;P1;durP2;ratioP2;P2;SDS_P1;SDS_P2;PMS_P1;PMS_P2;Temp;Humidity;BMP_temperature;BMP_pressure;BME280_temperature;BME280_humidity;BME280_pressure;Samples;Min_cycle;Max_cycle;Signal;HPM_P1;HPM_P2
2021/10/22 00:14:05;;;;;;;5.70;3.20;;;7.30;99.90;;;;;;4882788;29;20486;-91
2021/10/22 00:16:31;;;;;;;7.78;3.53;;;;;;;;;;4869093;29;20431;-91
2021/10/22 00:19:06;;;;;;;6.57;4.40;;;7.40;99.90;;;;;;4884591;29;20195;-90
2021/10/22 00:21:32;;;;;;;4.57;3.05;;;7.50;99.90;;;;;;4884699;29;20466;-90
2021/10/22 00:26:49;;;;;;;9.02;4.15;;;7.40;99.90;;;;;;5399925;23;20229;-92
2021/10/22 00:29:15;;;;;;;7.50;2.90;;;7.40;99.90;;;;;;4903444;29;20181;-92
2021/10/22 00:34:16;;;;;;;6.95;2.83;;;7.50;99.90;;;;;;5655218;23;20338;-90
2021/10/22 00:36:44;;;;;;;12.00;2.90;;;7.60;99.90;;;;;;4904040;29;20194;-91
2021/10/22 00:39:10;;;;;;;8.65;2.72;;;;;;;;;;4872580;29;20241;-92
2021/10/22 00:41:39;;;;;;;7.57;2.50;;;7.60;99.90;;;;;;4904171;29;20189;-91
2021/10/22 00:44:10;;;;;;;11.05;2.88;;;7.60;99.90;;;;;;4887865;29;20268;-90
2021/10/22 00:59:35;;;;;;;3.85;1.98;;;7.50;99.90;;;;;;5735056;23;20232;-92
2021/10/22 01:02:02;;;;;;;7.47;2.30;;;7.50;99.90;;;;;;4887630;29;20225;-90
2021/10/22 01:19:02;;;;;;;5.60;2.72;;;7.50;99.90;;;;;;5962478;23;20192;-91
2021/10/22 01:21:32;;;;;;;7.43;2.42;;;7.40;99.90;;;;;;4901867;29;20212;-91
2021/10/22 01:24:00;;;;;;;2.85;2.55;;;7.40;99.90;;;;;;4920648;29;20232;-91
2021/10/22 01:26:31;;;;;;;9.40;2.08;;;7.30;99.90;;;;;;4920069;29;20288;-90
2021/10/22 01:28:59;;;;;;;2.80;2.30;;;;;;;;;;4921190;29;20177;-91
2021/10/22 01:31:26;;;;;;;7.13;2.08;;;;;;;;;;4921216;29;20196;-93
2021/10/22 01:33:52;;;;;;;3.05;2.20;;;;;;;;;;4920727;29;20181;-91
2021/10/22 01:46:54;;;;;;;9.05;2.58;;;7.20;99.90;;;;;;5078044;23;20232;-93
2021/10/22 01:49:20;;;;;;;10.50;3.03;;;;;;;;;;4885730;29;20185;-91
2021/10/22 01:51:48;;;;;;;6.30;2.20;;;;;;;;;;4899026;29;20173;-92
2021/10/22 01:54:32;;;;;;;9.43;2.97;;;7.20;99.90;;;;;;4902226;29;20184;-93
2021/10/22 01:57:05;;;;;;;8.48;2.60;;;7.10;99.90;;;;;;4885626;29;20193;-92
2021/10/22 01:59:32;;;;;;;9.35;3.30;;;7.10;99.90;;;;;;4884823;29;20221;-93
2021/10/22 02:35:36;;;;;;;14.60;4.87;;;6.80;99.90;;;;;;4902623;29;20209;-91
2021/10/22 02:38:02;;;;;;;12.77;4.22;;;6.70;99.90;;;;;;4887670;29;20446;-92
2021/10/22 02:40:33;;;;;;;9.93;4.40;;;4.30;99.90;;;;;;4886891;29;20177;-91
2021/10/22 02:42:59;;;;;;;10.57;4.22;;;;;;;;;;4904324;29;20217;-91
2021/10/22 02:45:25;;;;;;;11.80;5.35;;;6.60;99.90;;;;;;4904613;29;20241;-91
2021/10/22 02:47:51;;;;;;;9.43;4.67;;;;;;;;;;4905193;29;20185;-92
2021/10/22 02:50:21;;;;;;;10.95;5.05;;;6.60;99.90;;;;;;5358692;23;20548;-91
2021/10/22 02:58:22;;;;;;;14.13;4.47;;;6.50;99.90;;;;;;4901220;29;20225;-88
2021/10/22 03:03:26;;;;;;;10.77;4.03;;;6.50;99.90;;;;;;4949263;23;20224;-92
2021/10/22 03:05:52;;;;;;;9.38;2.85;;;;;;;;;;4992993;23;20229;-93
2021/10/22 03:08:20;;;;;;;8.63;3.78;;;6.70;99.90;;;;;;4903625;29;20192;-92
2021/10/22 03:10:46;;;;;;;9.10;3.20;;;;;;;;;;4903853;29;20173;-92
2021/10/22 03:13:12;;;;;;;6.97;3.70;;;6.60;99.90;;;;;;4904455;29;20204;-93
2021/10/22 03:18:16;;;;;;;8.10;4.75;;;6.40;99.90;;;;;;5803575;23;20357;-92
2021/10/22 03:20:42;;;;;;;8.23;3.13;;;6.60;99.90;;;;;;4888168;29;20173;-91
2021/10/22 03:23:08;;;;;;;9.00;3.53;;;;;;;;;;4887613;29;20232;-92
2021/10/22 03:25:36;;;;;;;6.28;3.85;;;6.70;99.90;;;;;;4903409;29;20935;-92
2021/10/22 03:28:05;;;;;;;5.88;3.55;;;6.60;99.90;;;;;;4886108;29;20189;-92
2021/10/22 03:30:40;;;;;;;8.15;4.00;;;6.70;99.90;;;;;;4887010;29;20192;-92
2021/10/22 03:33:06;;;;;;;9.82;2.97;;;6.80;99.90;;;;;;4904170;29;20200;-90
2021/10/22 03:38:01;;;;;;;12.18;2.35;;;;;;;;;;4899459;29;20205;-92
2021/10/22 03:40:27;;;;;;;8.40;3.03;;;;;;;;;;4885024;29;20217;-92
2021/10/22 03:42:56;;;;;;;7.53;3.15;;;;;;;;;;4901686;29;20217;-92
2021/10/22 03:48:02;;;;;;;8.90;3.40;;;6.40;99.90;;;;;;4876820;27;20224;-91
2021/10/22 03:50:29;;;;;;;6.68;2.40;;;6.60;99.90;;;;;;4902705;29;20283;-92
2021/10/22 03:55:35;;;;;;;5.47;3.00;;;6.60;99.90;;;;;;5445672;23;20473;-90
2021/10/22 03:58:02;;;;;;;3.97;2.90;;;;;;;;;;4886645;29;20177;-89
2021/10/22 04:00:28;;;;;;;4.38;2.55;;;6.60;99.90;;;;;;4902958;29;20184;-90
2021/10/22 04:02:56;;;;;;;12.83;2.97;;;;;;;;;;4886059;29;20239;-91
2021/10/22 04:06:05;;;;;;;7.30;2.55;;;6.50;99.90;;;;;;4899267;29;20173;-91
2021/10/22 04:08:32;;;;;;;9.93;3.63;;;;;;;;;;4884241;29;20229;-90
2021/10/22 04:10:58;;;;;;;6.22;3.08;;;;;;;;;;5019011;23;20252;-91
2021/10/22 04:13:25;;;;;;;11.05;2.95;;;6.40;99.90;;;;;;4867621;29;20205;-91
2021/10/22 04:15:51;;;;;;;8.65;3.30;;;;;;;;;;4867115;29;20224;-90
2021/10/22 04:18:19;;;;;;;6.82;2.80;;;6.30;99.90;;;;;;4882978;29;20261;-92
2021/10/22 04:20:45;;;;;;;10.30;3.22;;;;;;;;;;4881701;29;20174;-92
2021/10/22 04:23:11;;;;;;;6.78;3.45;;;6.50;99.90;;;;;;4879704;29;20269;-92
2021/10/22 04:25:40;;;;;;;5.93;2.47;;;6.40;99.90;;;;;;4882247;29;20174;-92
2021/10/22 04:28:07;;;;;;;11.13;2.60;;;;;;;;;;4866187;29;20214;-93
2021/10/22 04:30:32;;;;;;;6.63;2.20;;;6.40;99.90;;;;;;4882785;29;20202;-91
2021/10/22 04:33:21;;;;;;;6.43;2.20;;;6.30;99.90;;;;;;4880203;29;20181;-91
2021/10/22 04:36:33;;;;;;;2.23;2.03;;;6.30;99.90;;;;;;4858922;29;20182;-91
2021/10/22 04:41:50;;;;;;;9.25;3.88;;;6.40;99.90;;;;;;4881930;29;20235;-91
2021/10/22 04:44:30;;;;;;;10.63;3.83;;;9.30;99.90;;;;;;4882439;29;20154;-88
2021/10/22 04:49:30;;;;;;;5.80;2.90;;;6.40;99.90;;;;;;4895165;29;20223;-91
2021/10/22 04:51:56;;;;;;;9.40;2.83;;;;;;;;;;4899678;29;20478;-91
2021/10/22 04:54:30;;;;;;;6.25;2.10;;;;;;;;;;4898800;29;20422;-91
2021/10/22 04:57:19;;;;;;;6.43;2.70;;;6.30;99.90;;;;;;4899273;29;20184;-93
2021/10/22 05:00:04;;;;;;;7.82;3.35;;;6.20;99.90;;;;;;4898578;29;20192;-92
2021/10/22 05:02:51;;;;;;;9.05;3.83;;;6.30;99.90;;;;;;4900270;29;20205;-91
2021/10/22 05:05:25;;;;;;;7.90;2.20;;;9.30;99.90;;;;;;4869240;29;20242;-92
2021/10/22 05:10:33;;;;;;;2.97;2.63;;;6.50;99.90;;;;;;4910892;23;20242;-93
2021/10/22 05:12:59;;;;;;;8.50;2.70;;;6.60;99.90;;;;;;4881393;29;20492;-92
2021/10/22 05:15:27;;;;;;;8.00;2.40;;;;;;;;;;4881055;29;20279;-92
2021/10/22 05:17:55;;;;;;;4.38;2.33;;;;;;;;;;4883432;29;20189;-92
2021/10/22 05:20:24;;;;;;;2.20;2.10;;;6.70;99.90;;;;;;4900321;29;20181;-92
2021/10/22 05:22:53;;;;;;;4.43;2.05;;;6.90;99.90;;;;;;5051726;23;20235;-93
2021/10/22 05:25:22;;;;;;;11.60;2.53;;;6.90;99.90;;;;;;4878678;29;20541;-93
2021/10/22 05:28:24;;;;;;;6.05;1.98;;;6.80;99.90;;;;;;4864489;29;20495;-92
2021/10/22 05:30:50;;;;;;;8.15;2.70;;;6.90;99.90;;;;;;4850288;29;20186;-90
2021/10/22 05:33:44;;;;;;;5.47;2.47;;;6.90;99.90;;;;;;4880668;29;20182;-93
2021/10/22 05:36:28;;;;;;;4.25;2.88;;;6.70;99.90;;;;;;4880362;29;20174;-92
2021/10/22 05:39:37;;;;;;;10.73;2.90;;;6.90;99.90;;;;;;4880935;29;20174;-94
2021/10/22 05:42:23;;;;;;;3.07;2.80;;;6.80;99.90;;;;;;4882999;29;20190;-93
2021/10/22 05:50:25;;;;;;;8.30;2.37;;;;;;;;;;5157283;23;20241;-90
2021/10/22 05:52:51;;;;;;;4.80;2.60;;;;;;;;;;4905056;29;20474;-94
2021/10/22 05:55:17;;;;;;;8.27;2.58;;;;;;;;;;4902468;29;20201;-93
2021/10/22 05:57:47;;;;;;;8.95;2.10;;;6.80;99.90;;;;;;4900476;29;20213;-90
2021/10/22 06:00:13;;;;;;;4.80;1.92;;;7.80;99.90;;;;;;4885557;29;20170;-91
2021/10/22 06:02:50;;;;;;;4.50;2.33;;;6.80;99.90;;;;;;4896959;29;20287;-90
2021/10/22 06:05:19;;;;;;;6.93;2.53;;;6.60;99.90;;;;;;4883815;29;20188;-89
2021/10/22 06:07:58;;;;;;;2.97;2.53;;;6.60;99.90;;;;;;4869631;29;20193;-93
2021/10/22 06:10:35;;;;;;;5.03;2.17;;;6.70;99.90;;;;;;4880338;29;20177;-93
2021/10/22 06:13:02;;;;;;;11.13;2.15;;;;;;;;;;4889009;29;20177;-88
2021/10/22 06:15:34;;;;;;;2.13;2.03;;;6.70;99.90;;;;;;4887211;29;20161;-92
2021/10/22 06:21:01;;;;;;;7.60;3.28;;;6.60;99.90;;;;;;4913211;23;20665;-92
2021/10/22 06:26:11;;;;;;;7.90;3.40;;;6.50;99.90;;;;;;4900388;29;20226;-91
2021/10/22 06:28:39;;;;;;;6.35;4.28;;;6.60;99.90;;;;;;4882321;29;20217;-93
2021/10/22 06:31:11;;;;;;;4.00;2.40;;;6.50;99.90;;;;;;4896803;29;20181;-92
2021/10/22 06:33:39;;;;;;;10.93;3.78;;;6.60;99.90;;;;;;4900077;29;20184;-91
2021/10/22 06:36:15;;;;;;;7.47;3.50;;;6.70;99.90;;;;;;4883668;29;20215;-93
2021/10/22 06:39:08;;;;;;;9.25;2.42;;;6.90;99.90;;;;;;4900854;29;20177;-93
2021/10/22 06:41:57;;;;;;;7.35;3.83;;;6.80;99.90;;;;;;4896837;29;20209;-91
2021/10/22 06:44:29;;;;;;;3.08;2.60;;;;;;;;;;4901226;29;20188;-89
2021/10/22 06:47:05;;;;;;;3.40;2.28;;;7.00;99.90;;;;;;4882699;29;20185;-91
2021/10/22 06:49:38;;;;;;;7.72;2.72;;;7.00;99.90;;;;;;4884286;29;20194;-93
2021/10/22 06:52:10;;;;;;;4.50;2.53;;;7.00;99.90;;;;;;4872548;29;20274;-89
2021/10/22 06:54:36;;;;;;;4.75;2.50;;;;;;;;;;4884113;29;20161;-90
2021/10/22 06:57:27;;;;;;;8.15;3.50;;;7.20;99.90;;;;;;4882102;29;20249;-92
2021/10/22 06:59:56;;;;;;;2.70;2.05;;;7.00;99.90;;;;;;4881393;29;20190;-92
2021/10/22 07:02:22;;;;;;;8.25;2.65;;;;;;;;;;4991364;23;20237;-90
2021/10/22 07:04:58;;;;;;;6.60;3.30;;;7.50;99.90;;;;;;4897297;29;20189;-91
2021/10/22 07:07:27;;;;;;;5.83;2.10;;;;;;;;;;4927741;23;20533;-91
2021/10/22 07:12:29;;;;;;;12.57;2.87;;;7.60;99.90;;;;;;4603697;27;20247;-91
2021/10/22 07:14:57;;;;;;;2.83;2.28;;;7.60;99.90;;;;;;4898876;29;20434;-92
2021/10/22 07:17:29;;;;;;;2.40;1.80;;;8.00;99.90;;;;;;4899376;29;20174;-91
2021/10/22 07:20:15;;;;;;;5.53;2.47;;;7.90;99.90;;;;;;4882327;29;20490;-92
2021/10/22 07:22:52;;;;;;;8.13;3.95;;;8.00;99.90;;;;;;4882818;29;20486;-89
2021/10/22 07:25:23;;;;;;;7.37;2.87;;;7.90;99.20;;;;;;4897081;29;20181;-91
2021/10/22 07:27:51;;;;;;;7.20;3.28;;;8.00;99.90;;;;;;4894506;29;20458;-90
2021/10/22 07:30:20;;;;;;;6.60;4.05;;;;;;;;;;4879858;29;20197;-93
2021/10/22 07:33:07;;;;;;;3.93;2.27;;;8.10;98.90;;;;;;4881446;29;20205;-93
2021/10/22 07:35:41;;;;;;;3.38;2.80;;;8.10;99.90;;;;;;4899088;29;20490;-90
2021/10/22 07:38:14;;;;;;;4.07;1.93;;;8.00;99.90;;;;;;4904728;29;20204;-90
2021/10/22 07:40:46;;;;;;;5.23;2.40;;;8.10;99.90;;;;;;4889001;29;20434;-90
2021/10/22 07:43:19;;;;;;;5.97;2.87;;;8.30;99.90;;;;;;4889827;29;20449;-90
2021/10/22 07:45:46;;;;;;;4.63;1.23;;;;;;;;;;4888118;29;20422;-91
2021/10/22 07:48:13;;;;;;;7.75;2.05;;;8.40;99.70;;;;;;4886334;29;20493;-91
2021/10/22 07:50:39;;;;;;;4.72;2.47;;;8.40;99.90;;;;;;4888203;29;20676;-90
2021/10/22 07:53:05;;;;;;;3.88;2.10;;;;;;;;;;4889268;29;20188;-89
2021/10/22 07:55:34;;;;;;;3.35;2.22;;;;;;;;;;4890648;29;20275;-90
2021/10/22 07:58:03;;;;;;;7.70;2.63;;;8.50;99.90;;;;;;4874078;29;20220;-90
2021/10/22 08:00:32;;;;;;;2.60;2.40;;;;;;;;;;4872484;29;20450;-91
2021/10/22 08:03:00;;;;;;;2.67;2.47;;;8.50;98.90;;;;;;4890134;29;20510;-90
2021/10/22 08:05:28;;;;;;;2.67;1.48;;;8.30;99.90;;;;;;4892622;29;20430;-91
2021/10/22 08:07:54;;;;;;;3.28;2.10;;;8.60;99.90;;;;;;4890391;29;20218;-92
2021/10/22 08:10:21;;;;;;;7.70;2.40;;;;;;;;;;4875039;29;20210;-90
2021/10/22 08:12:47;;;;;;;4.03;1.93;;;;;;;;;;4888749;29;20426;-88
2021/10/22 08:15:18;;;;;;;3.85;2.30;;;8.80;98.30;;;;;;4888169;29;20426;-90
2021/10/22 08:17:46;;;;;;;6.83;2.93;;;;;;;;;;4874671;29;20181;-91
2021/10/22 08:20:17;;;;;;;5.40;2.75;;;9.20;99.90;;;;;;4888577;29;20835;-91
2021/10/22 08:22:43;;;;;;;5.90;2.88;;;;;;;;;;4875344;29;20280;-91
2021/10/22 08:25:24;;;;;;;5.07;2.37;;;9.00;97.60;;;;;;4873389;29;20173;-90
2021/10/22 08:27:52;;;;;;;9.37;2.47;;;9.00;99.40;;;;;;4875900;29;20512;-89
2021/10/22 08:30:22;;;;;;;7.50;2.30;;;8.90;99.90;;;;;;4874095;29;20441;-90
2021/10/22 08:32:55;;;;;;;1.77;1.67;;;9.00;99.40;;;;;;4888181;29;20414;-91
2021/10/22 08:35:28;;;;;;;6.73;2.57;;;10.10;97.90;;;;;;4890842;29;20485;-88
2021/10/22 08:38:00;;;;;;;6.50;2.90;;;9.00;99.60;;;;;;4892653;29;20422;-90
2021/10/22 08:40:26;;;;;;;1.95;1.80;;;;;;;;;;4872045;29;20507;-89
2021/10/22 08:42:52;;;;;;;4.28;2.10;;;;;;;;;;4869535;29;20270;-89
2021/10/22 08:45:21;;;;;;;3.13;2.35;;;9.00;98.00;;;;;;4887764;29;20237;-91
2021/10/22 08:47:47;;;;;;;5.93;3.33;;;;;;;;;;4893306;29;20284;-90
2021/10/22 08:50:17;;;;;;;7.95;2.90;;;9.10;98.00;;;;;;4895673;29;20289;-88
2021/10/22 08:52:46;;;;;;;6.00;4.20;;;;;;;;;;4894251;29;20196;-91
2021/10/22 08:55:58;;;;;;;8.10;2.87;;;9.00;98.00;;;;;;4885903;29;20471;-94
2021/10/22 08:58:30;;;;;;;3.73;2.00;;;9.80;98.80;;;;;;4890539;29;20466;-90
2021/10/22 09:00:57;;;;;;;4.53;2.35;;;9.50;98.00;;;;;;4892287;29;20463;-92
2021/10/22 09:03:24;;;;;;;4.93;2.47;;;9.30;99.50;;;;;;4891251;29;20252;-92
2021/10/22 09:06:04;;;;;;;3.03;2.63;;;9.30;99.60;;;;;;4878812;29;20442;-91
2021/10/22 09:08:39;;;;;;;3.40;2.05;;;9.50;99.80;;;;;;4879347;29;20177;-93
2021/10/22 09:11:18;;;;;;;7.85;2.20;;;9.70;99.20;;;;;;4864097;29;20261;-92
2021/10/22 09:14:15;;;;;;;2.90;2.20;;;11.40;98.00;;;;;;4882000;29;20188;-90
2021/10/22 09:16:44;;;;;;;6.13;2.07;;;9.80;98.70;;;;;;4898091;29;20225;-93
2021/10/22 09:19:11;;;;;;;2.92;1.88;;;10.10;95.80;;;;;;4948267;23;20431;-94
2021/10/22 09:21:37;;;;;;;6.80;2.37;;;;;;;;;;4544943;29;10001453;-94
2021/10/22 09:24:33;;;;;;;16.37;9.93;;;10.30;95.10;;;;;;4879382;29;20182;-90
2021/10/22 09:27:25;;;;;;;3.93;2.20;;;10.20;95.70;;;;;;4877243;29;20497;-93
2021/10/22 09:30:01;;;;;;;2.13;2.13;;;12.70;96.70;;;;;;4878133;29;20422;-92
2021/10/22 09:32:30;;;;;;;6.80;2.90;;;12.10;95.60;;;;;;4893987;29;20461;-90
2021/10/22 09:37:38;;;;;;;4.93;2.10;;;10.70;94.70;;;;;;4994840;23;21009;-92
2021/10/22 09:40:08;;;;;;;3.50;2.23;;;10.70;96.00;;;;;;4879469;29;20433;-92
2021/10/22 09:42:37;;;;;;;4.80;1.80;;;;;;;;;;4877902;29;20568;-89
2021/10/22 09:45:03;;;;;;;7.73;3.70;;;10.90;93.80;;;;;;4892773;29;20501;-88
2021/10/22 09:47:29;;;;;;;8.23;2.10;;;;;;;;;;4878186;29;20430;-88
2021/10/22 09:50:06;;;;;;;2.80;1.93;;;10.80;95.60;;;;;;4893162;29;20422;-89
2021/10/22 09:52:35;;;;;;;2.13;2.03;;;;;;;;;;4879501;29;20450;-91
2021/10/22 09:55:06;;;;;;;4.20;1.90;;;12.00;91.90;;;;;;4894374;29;20433;-91
2021/10/22 09:57:44;;;;;;;0.70;0.70;;;10.90;90.40;;;;;;4877659;29;20457;-92
2021/10/22 10:00:25;;;;;;;3.10;1.37;;;12.30;85.30;;;;;;4880228;29;20409;-89
2021/10/22 10:02:50;;;;;;;4.17;1.63;;;13.70;81.80;;;;;;4892791;29;20481;-90
2021/10/22 10:05:18;;;;;;;2.87;2.70;;;;;;;;;;4893494;29;20812;-89
2021/10/22 10:07:46;;;;;;;5.00;1.77;;;12.80;81.70;;;;;;4893217;29;20174;-90
2021/10/22 10:10:21;;;;;;;6.43;2.13;;;11.90;88.60;;;;;;4875868;29;20430;-91
2021/10/22 10:12:54;;;;;;;1.20;1.20;;;14.70;93.50;;;;;;4891878;29;20409;-90
2021/10/22 10:15:20;;;;;;;4.60;2.23;;;11.80;90.70;;;;;;4874678;29;20429;-89
2021/10/22 10:17:48;;;;;;;5.10;1.90;;;12.30;87.30;;;;;;4892029;29;20448;-92
2021/10/22 10:20:18;;;;;;;3.23;1.67;;;15.50;91.10;;;;;;4891121;29;20225;-90
2021/10/22 10:22:50;;;;;;;3.70;1.37;;;14.70;88.90;;;;;;4875049;29;20462;-89
2021/10/22 10:25:27;;;;;;;1.07;1.07;;;13.00;87.60;;;;;;4891685;29;20470;-90
2021/10/22 10:28:02;;;;;;;3.57;1.40;;;11.90;85.80;;;;;;4877418;29;20520;-92
2021/10/22 10:30:35;;;;;;;3.10;1.63;;;15.60;87.40;;;;;;4895125;29;20423;-93
2021/10/22 10:33:06;;;;;;;2.10;1.50;;;13.20;81.70;;;;;;4880463;29;20414;-90
2021/10/22 10:35:42;;;;;;;4.20;1.70;;;13.20;82.40;;;;;;4879758;29;20492;-91
2021/10/22 10:38:11;;;;;;;5.27;1.87;;;;;;;;;;4895568;29;20469;-92
2021/10/22 10:40:48;;;;;;;5.57;1.70;;;13.20;79.80;;;;;;4881903;29;20436;-93
2021/10/22 10:43:23;;;;;;;6.70;2.00;;;12.00;85.50;;;;;;4894477;29;20507;-93
2021/10/22 10:45:53;;;;;;;3.23;1.10;;;14.10;89.20;;;;;;4880189;29;20543;-91
2021/10/22 10:48:21;;;;;;;4.20;1.63;;;12.50;98.80;;;;;;4557909;29;10000808;-92
2021/10/22 10:51:08;;;;;;;4.00;1.80;;;12.40;89.00;;;;;;4879684;29;20190;-93
2021/10/22 10:53:45;;;;;;;7.43;2.07;;;15.30;87.50;;;;;;4895375;29;20438;-92
2021/10/22 10:56:44;;;;;;;4.93;1.70;;;13.50;89.50;;;;;;4897262;29;20533;-93
2021/10/22 10:59:51;;;;;;;3.77;1.93;;;15.90;86.90;;;;;;4898021;29;20952;-94
2021/10/22 11:02:20;;;;;;;3.33;1.50;;;;;;;;;;4882473;29;20474;-89
2021/10/22 11:04:49;;;;;;;4.80;1.97;;;12.80;81.50;;;;;;4880631;29;20952;-91
2021/10/22 11:07:45;;;;;;;4.43;3.00;;;10.60;90.50;;;;;;4893691;29;20559;-91
2021/10/22 11:10:58;;;;;;;6.33;2.10;;;12.20;88.60;;;;;;4880431;29;20869;-89
2021/10/22 11:13:43;;;;;;;2.13;2.03;;;12.20;85.50;;;;;;4896739;29;20413;-93
2021/10/22 11:16:22;;;;;;;5.57;1.40;;;12.80;90.30;;;;;;4896882;29;20490;-90
2021/10/22 11:21:32;;;;;;;4.33;1.57;;;12.90;82.50;;;;;;4877215;29;20499;-92
2021/10/22 11:24:09;;;;;;;1.17;1.00;;;14.90;87.60;;;;;;4864755;29;20422;-92
2021/10/22 11:26:35;;;;;;;5.23;1.87;;;;;;;;;;4863648;29;20446;-90
2021/10/22 11:29:23;;;;;;;2.90;1.90;;;13.00;80.60;;;;;;4878855;29;20403;-94
2021/10/22 11:31:55;;;;;;;2.67;2.47;;;12.80;80.20;;;;;;4878695;29;20430;-92
2021/10/22 11:34:37;;;;;;;2.30;1.80;;;12.80;81.70;;;;;;4861169;29;20423;-92
2021/10/22 11:37:11;;;;;;;3.17;2.00;;;12.80;82.80;;;;;;4848907;29;20494;-87
2021/10/22 11:39:46;;;;;;;2.70;2.13;;;15.40;86.40;;;;;;4875493;29;20437;-91
2021/10/22 11:42:29;;;;;;;2.90;1.67;;;13.90;87.30;;;;;;4861730;29;21000;-90
2021/10/22 11:45:00;;;;;;;4.10;1.93;;;14.50;88.40;;;;;;4860790;29;20433;-93
2021/10/22 11:47:43;;;;;;;7.03;2.77;;;12.90;88.00;;;;;;4872485;29;20411;-91
2021/10/22 11:50:24;;;;;;;1.73;1.70;;;12.60;85.90;;;;;;4869608;29;20462;-92
2021/10/22 11:53:23;;;;;;;4.53;2.23;;;16.20;93.70;;;;;;4877175;29;20839;-94
2021/10/22 11:56:02;;;;;;;1.93;1.57;;;14.80;90.70;;;;;;4846018;29;20450;-90
2021/10/22 11:58:40;;;;;;;2.63;1.97;;;11.90;89.40;;;;;;4874874;29;20529;-91
2021/10/22 12:01:23;;;;;;;4.80;2.03;;;13.80;92.00;;;;;;4862621;29;20415;-93
2021/10/22 12:03:55;;;;;;;2.23;2.03;;;14.50;93.40;;;;;;4857200;29;20439;-89
2021/10/22 12:06:23;;;;;;;4.27;2.50;;;11.60;96.20;;;;;;4855294;29;20426;-90
2021/10/22 12:09:05;;;;;;;5.20;1.70;;;13.90;95.50;;;;;;4873121;29;20414;-90
2021/10/22 12:11:31;;;;;;;3.03;1.93;;;11.90;97.60;;;;;;4856940;29;20460;-89
2021/10/22 12:13:59;;;;;;;2.23;1.97;;;;;;;;;;4873734;29;20419;-92
2021/10/22 12:16:37;;;;;;;5.93;2.00;;;11.20;94.80;;;;;;4197874;29;10000696;-91
2021/10/22 12:19:03;;;;;;;12.67;2.80;;;;;;;;;;4875071;29;20422;-89
2021/10/22 12:21:31;;;;;;;3.03;2.30;;;11.10;95.60;;;;;;4877729;29;20479;-91
2021/10/22 12:24:23;;;;;;;6.93;3.90;;;11.60;97.10;;;;;;4879975;29;20430;-88
2021/10/22 12:29:58;;;;;;;6.67;2.80;;;10.70;95.00;;;;;;4908811;23;20572;-90
2021/10/22 12:32:49;;;;;;;;;;;;;;;;;;;;;
2021/10/22 12:35:21;;;;;;;3.90;1.73;;;13.30;96.60;;;;;;4895937;29;20454;-90
2021/10/22 12:38:02;;;;;;;4.13;2.20;;;12.10;94.60;;;;;;4881840;29;20426;-89
2021/10/22 12:41:04;;;;;;;3.77;2.07;;;12.50;99.90;;;;;;4880400;29;20444;-92
2021/10/22 12:43:31;;;;;;;9.30;6.57;;;12.60;90.50;;;;;;4923164;23;20449;-90
2021/10/22 12:46:21;;;;;;;2.97;2.70;;;11.30;91.20;;;;;;4891275;29;20435;-89
2021/10/22 12:49:15;;;;;;;3.03;1.80;;;12.60;91.40;;;;;;4877217;29;20422;-90
2021/10/22 12:51:42;;;;;;;2.20;1.87;;;13.90;92.50;;;;;;4895042;29;20437;-91
2021/10/22 12:54:09;;;;;;;3.00;2.00;;;;;;;;;;4877548;29;20413;-88
2021/10/22 12:56:37;;;;;;;2.97;2.17;;;12.40;89.70;;;;;;4896968;29;20494;-90
2021/10/22 12:59:10;;;;;;;5.13;2.27;;;12.30;90.70;;;;;;4878365;29;20805;-89
2021/10/22 13:01:48;;;;;;;3.07;2.77;;;13.40;91.70;;;;;;4898842;29;20480;-91
2021/10/22 13:04:32;;;;;;;1.90;1.70;;;14.80;92.50;;;;;;4881629;29;20475;-91
2021/10/22 13:07:10;;;;;;;3.20;2.50;;;;;;;;;;4894094;29;20445;-91
2021/10/22 13:10:04;;;;;;;3.40;2.57;;;13.10;99.30;;;;;;4896365;29;20413;-90
2021/10/22 13:12:46;;;;;;;2.57;2.37;;;;;;;;;;4881565;29;20446;-92
2021/10/22 13:21:30;;;;;;;2.57;2.30;;;14.50;78.70;;;;;;4896415;29;20421;-94
2021/10/22 13:24:06;;;;;;;2.20;2.10;;;17.40;86.10;;;;;;4895583;29;20470;-93
2021/10/22 13:26:45;;;;;;;2.73;2.50;;;16.50;82.60;;;;;;4892130;29;20474;-92
2021/10/22 13:29:16;;;;;;;3.20;2.30;;;14.50;87.00;;;;;;4881579;29;20454;-92
2021/10/22 13:31:56;;;;;;;6.73;2.80;;;15.80;87.40;;;;;;4895238;29;20437;-92
2021/10/22 13:34:21;;;;;;;3.30;2.43;;;13.60;89.50;;;;;;4879209;29;20421;-93
2021/10/22 13:36:48;;;;;;;6.33;2.27;;;15.80;92.30;;;;;;4879660;29;20537;-92
2021/10/22 13:39:39;;;;;;;4.93;2.90;;;13.40;92.00;;;;;;4877753;29;20189;-93
2021/10/22 13:42:22;;;;;;;3.07;2.97;;;13.10;90.40;;;;;;4896800;29;20505;-93
2021/10/22 13:44:48;;;;;;;5.83;3.33;;;12.30;90.50;;;;;;4913696;23;20482;-93
2021/10/22 13:47:14;;;;;;;2.37;2.20;;;;;;;;;;5007502;23;20490;-88
2021/10/22 13:50:06;;;;;;;;;;;;;;;;;;;;;
2021/10/22 13:52:52;;;;;;;3.27;2.70;;;13.30;91.70;;;;;;4894052;29;20429;-93
2021/10/22 13:55:19;;;;;;;6.13;2.90;;;;;;;;;;4888129;29;20445;-88
2021/10/22 13:58:01;;;;;;;;;;;;;;;;;;;;;
2021/10/22 14:00:32;;;;;;;7.53;2.73;;;13.30;93.60;;;;;;4891559;29;20433;-91
2021/10/22 14:02:59;;;;;;;5.13;2.87;;;12.90;93.70;;;;;;4881800;29;20465;-92
2021/10/22 14:05:28;;;;;;;5.83;2.10;;;13.40;95.40;;;;;;4883736;29;20434;-92
2021/10/22 14:07:55;;;;;;;5.90;2.37;;;12.40;92.80;;;;;;4899794;29;20530;-92
2021/10/22 14:10:51;;;;;;;5.47;1.73;;;11.20;91.70;;;;;;4897496;29;20422;-91
2021/10/22 14:13:29;;;;;;;4.50;2.60;;;13.30;93.40;;;;;;4898378;29;20450;-92
2021/10/22 14:17:03;;;;;;;4.53;2.47;;;11.30;96.50;;;;;;4898659;29;20177;-92
2021/10/22 14:29:41;;;;;;;3.23;1.57;;;;;;;;;;4898412;29;20494;-90
2021/10/22 14:32:08;;;;;;;2.07;1.97;;;12.30;91.00;;;;;;4900023;29;20469;-91
2021/10/22 14:34:59;;;;;;;1.30;1.13;;;12.20;91.10;;;;;;5004247;23;20521;-93
2021/10/22 14:37:38;;;;;;;4.27;1.60;;;16.20;95.40;;;;;;4849558;29;20527;-92
2021/10/22 14:40:14;;;;;;;2.53;2.10;;;11.10;93.80;;;;;;4862491;29;20504;-91
2021/10/22 14:42:44;;;;;;;5.40;2.40;;;12.10;99.90;;;;;;4846214;29;20486;-89
2021/10/22 14:45:37;;;;;;;2.97;2.60;;;12.40;91.90;;;;;;4862928;29;20420;-91
2021/10/22 14:48:31;;;;;;;2.93;2.73;;;12.20;91.80;;;;;;4862969;29;20435;-92
2021/10/22 14:51:36;;;;;;;5.80;3.27;;;12.70;99.70;;;;;;4862509;29;20388;-93
2021/10/22 14:54:18;;;;;;;4.10;2.73;;;12.30;92.70;;;;;;4849805;29;20526;-91
2021/10/22 14:57:01;;;;;;;3.40;3.00;;;13.30;96.00;;;;;;4859856;29;20776;-94
2021/10/22 14:59:31;;;;;;;4.13;2.30;;;;;;;;;;4993133;23;20501;-91
2021/10/22 15:02:07;;;;;;;3.53;3.10;;;12.20;93.10;;;;;;4899496;29;20482;-90
2021/10/22 15:04:33;;;;;;;3.30;2.23;;;;;;;;;;4898211;29;20482;-90
2021/10/22 15:06:59;;;;;;;4.13;2.53;;;;;;;;;;4898900;29;20422;-91
2021/10/22 15:09:28;;;;;;;3.20;2.17;;;12.10;94.10;;;;;;4899236;29;20442;-90
2021/10/22 15:12:23;;;;;;;2.30;2.10;;;10.90;95.10;;;;;;4899086;29;20422;-92
2021/10/22 15:14:53;;;;;;;5.33;1.77;;;14.90;95.60;;;;;;4881966;29;20426;-90
2021/10/22 15:17:19;;;;;;;3.37;2.27;;;;;;;;;;4900983;29;20426;-88
2021/10/22 15:22:58;;;;;;;2.27;1.77;;;12.00;94.60;;;;;;5039028;23;20549;-92
2021/10/22 15:25:31;;;;;;;3.47;2.47;;;10.80;95.40;;;;;;4883484;29;20489;-91
2021/10/22 15:28:03;;;;;;;2.30;2.10;;;14.10;99.10;;;;;;4895926;29;20453;-91
2021/10/22 15:30:34;;;;;;;2.17;2.00;;;12.00;99.90;;;;;;4883341;29;20433;-90
2021/10/22 15:33:26;;;;;;;6.17;2.30;;;11.30;97.60;;;;;;4882246;29;20910;-92
2021/10/22 15:36:01;;;;;;;3.97;2.37;;;14.60;97.60;;;;;;4878284;29;20493;-93
2021/10/22 15:38:35;;;;;;;8.07;3.83;;;13.10;96.40;;;;;;4883281;29;20489;-93
2021/10/22 15:41:05;;;;;;;4.70;2.50;;;;;;;;;;4880364;29;20429;-90
2021/10/22 15:43:53;;;;;;;11.80;3.10;;;11.80;96.90;;;;;;4894862;29;20528;-93
2021/10/22 15:46:34;;;;;;;3.23;2.23;;;12.70;99.80;;;;;;4876861;29;20995;-91
2021/10/22 15:49:01;;;;;;;5.10;2.23;;;;;;;;;;4890236;29;20429;-90
2021/10/22 15:51:28;;;;;;;9.03;2.80;;;;;;;;;;4887609;29;20428;-90
2021/10/22 15:53:53;;;;;;;4.73;2.57;;;10.90;99.90;;;;;;4881575;29;20522;-87
2021/10/22 15:56:27;;;;;;;4.33;2.47;;;10.80;99.90;;;;;;4867867;29;20526;-89
2021/10/22 15:58:53;;;;;;;6.40;2.73;;;;;;;;;;4883265;29;20184;-93
2021/10/22 16:01:21;;;;;;;4.23;2.20;;;;;;;;;;4885068;29;20410;-91
2021/10/22 16:03:47;;;;;;;3.90;1.83;;;;;;;;;;4887155;29;20426;-90
2021/10/22 16:06:22;;;;;;;2.10;2.00;;;10.40;99.90;;;;;;4881432;29;20433;-91
2021/10/22 16:08:58;;;;;;;2.23;2.13;;;;;;;;;;4853606;29;20434;-91
2021/10/22 16:17:21;;;;;;;3.10;2.67;;;9.50;99.90;;;;;;4900404;29;20512;-93
2021/10/22 16:19:28;;;;;;;4.23;3.13;;;12.20;99.90;;;;;;4881337;29;20433;-91
2021/10/22 16:21:55;;;;;;;3.60;3.30;;;;;;;;;;4886638;29;20821;-91
2021/10/22 16:24:29;;;;;;;2.87;2.70;;;9.90;99.90;;;;;;4889236;29;20422;-93
2021/10/22 16:26:55;;;;;;;4.23;3.83;;;;;;;;;;4872055;29;20418;-91
2021/10/22 16:29:22;;;;;;;3.90;3.60;;;9.90;99.90;;;;;;4893352;29;20451;-89
2021/10/22 16:31:51;;;;;;;4.57;4.27;;;9.90;99.90;;;;;;4878298;29;20516;-93
2021/10/22 16:37:04;;;;;;;3.60;3.27;;;12.80;99.90;;;;;;4890483;29;20558;-93
2021/10/22 16:39:30;;;;;;;2.67;2.57;;;;;;;;;;4889924;29;20436;-91